AXE6809 BIKF-EKBI
Flight info
| Callsign | AXE6809 |
|---|---|
| Flight time | 2h 25m |
| Altitude | 35000 |
| Route | OSKUM3A OSKUM DCT RATSU/N0451F350 DCT BESGA DCT MOCHA DCT ALOTI DCT KARLI DCT GELBA |
| Aircraft | B738/M-SDE2E3FGHIRWXY/LB1 |
Departure
| Time | 2026-05-05 12:47 |
|---|---|
| Airport | Keflavik International Airport (BIKF) |
Arrival
| Time | 2026-05-05 15:12 |
|---|---|
| Airport | Billund Airport (EKBI) |
| Time | Latitude | Longitude | Altitude | Speed | Heading |
|---|---|---|---|---|---|
| 2026-05-05 12:07 | 63.98981 | -22.63677 | 124 ft | 0 kts | 360° |
| 2026-05-05 12:27 | 63.98977 | -22.63677 | 124 ft | 3 kts | 360° |
| 2026-05-05 12:27 | 63.98952 | -22.63683 | 121 ft | 4 kts | 32° |
| 2026-05-05 12:27 | 63.98936 | -22.63710 | 119 ft | 4 kts | 29° |
| 2026-05-05 12:28 | 63.98912 | -22.63724 | 119 ft | 4 kts | 356° |
| 2026-05-05 12:28 | 63.98889 | -22.63722 | 122 ft | 4 kts | 5° |
| 2026-05-05 12:28 | 63.98866 | -22.63740 | 120 ft | 4 kts | 48° |
| 2026-05-05 12:28 | 63.98855 | -22.63792 | 121 ft | 4 kts | 82° |
| 2026-05-05 12:29 | 63.98854 | -22.63839 | 120 ft | 0 kts | 90° |
| 2026-05-05 12:32 | 63.98854 | -22.63836 | 120 ft | 1 kts | 90° |
| 2026-05-05 12:32 | 63.98854 | -22.63814 | 121 ft | 2 kts | 90° |
| 2026-05-05 12:32 | 63.98854 | -22.63768 | 121 ft | 3 kts | 90° |
| 2026-05-05 12:32 | 63.98854 | -22.63717 | 123 ft | 3 kts | 89° |
| 2026-05-05 12:33 | 63.98854 | -22.63667 | 124 ft | 3 kts | 89° |
| 2026-05-05 12:33 | 63.98854 | -22.63617 | 126 ft | 3 kts | 91° |
| 2026-05-05 12:33 | 63.98854 | -22.63533 | 127 ft | 8 kts | 90° |
| 2026-05-05 12:33 | 63.98854 | -22.63377 | 130 ft | 10 kts | 90° |
| 2026-05-05 12:34 | 63.98854 | -22.63222 | 132 ft | 10 kts | 90° |
| 2026-05-05 12:34 | 63.98854 | -22.63068 | 133 ft | 10 kts | 91° |
| 2026-05-05 12:34 | 63.98854 | -22.62904 | 135 ft | 10 kts | 89° |
| 2026-05-05 12:34 | 63.98854 | -22.62731 | 137 ft | 11 kts | 90° |
| 2026-05-05 12:35 | 63.98855 | -22.62560 | 140 ft | 11 kts | 89° |
| 2026-05-05 12:35 | 63.98855 | -22.62393 | 143 ft | 10 kts | 91° |
| 2026-05-05 12:35 | 63.98854 | -22.62222 | 145 ft | 11 kts | 90° |
| 2026-05-05 12:35 | 63.98854 | -22.62051 | 147 ft | 11 kts | 90° |
| 2026-05-05 12:36 | 63.98854 | -22.61873 | 149 ft | 12 kts | 89° |
| 2026-05-05 12:36 | 63.98855 | -22.61669 | 150 ft | 13 kts | 91° |
| 2026-05-05 12:36 | 63.98855 | -22.61455 | 153 ft | 13 kts | 89° |
| 2026-05-05 12:36 | 63.98854 | -22.61250 | 157 ft | 11 kts | 91° |
| 2026-05-05 12:37 | 63.98831 | -22.61132 | 159 ft | 6 kts | 147° |
| 2026-05-05 12:37 | 63.98787 | -22.61124 | 159 ft | 7 kts | 181° |
| 2026-05-05 12:37 | 63.98728 | -22.61127 | 158 ft | 10 kts | 181° |
| 2026-05-05 12:37 | 63.98644 | -22.61129 | 159 ft | 12 kts | 188° |
| 2026-05-05 12:38 | 63.98591 | -22.61228 | 158 ft | 10 kts | 241° |
| 2026-05-05 12:38 | 63.98550 | -22.61391 | 157 ft | 12 kts | 240° |
| 2026-05-05 12:38 | 63.98509 | -22.61438 | 157 ft | 3 kts | 173° |
| 2026-05-05 12:38 | 63.98500 | -22.61404 | 158 ft | 3 kts | 95° |
| 2026-05-05 12:39 | 63.98501 | -22.61352 | 158 ft | 4 kts | 87° |
| 2026-05-05 12:39 | 63.98503 | -22.61262 | 159 ft | 7 kts | 87° |
| 2026-05-05 12:39 | 63.98502 | -22.61148 | 161 ft | 4 kts | 112° |
| 2026-05-05 12:39 | 63.98474 | -22.61124 | 160 ft | 6 kts | 181° |
| 2026-05-05 12:40 | 63.98408 | -22.61127 | 158 ft | 13 kts | 181° |
| 2026-05-05 12:40 | 63.98303 | -22.61124 | 160 ft | 16 kts | 181° |
| 2026-05-05 12:40 | 63.98190 | -22.61127 | 159 ft | 14 kts | 175° |
| 2026-05-05 12:40 | 63.98143 | -22.61057 | 161 ft | 6 kts | 109° |
| 2026-05-05 12:41 | 63.98127 | -22.60971 | 165 ft | 6 kts | 136° |
| 2026-05-05 12:41 | 63.98086 | -22.60942 | 166 ft | 7 kts | 179° |
| 2026-05-05 12:41 | 63.98032 | -22.60940 | 167 ft | 9 kts | 180° |
| 2026-05-05 12:41 | 63.97937 | -22.60941 | 168 ft | 17 kts | 180° |
| 2026-05-05 12:42 | 63.97822 | -22.60942 | 169 ft | 16 kts | 180° |
| 2026-05-05 12:42 | 63.97712 | -22.60942 | 168 ft | 16 kts | 180° |
| 2026-05-05 12:42 | 63.97606 | -22.60941 | 167 ft | 15 kts | 180° |
| 2026-05-05 12:42 | 63.97503 | -22.60942 | 165 ft | 15 kts | 180° |
| 2026-05-05 12:43 | 63.97403 | -22.60940 | 163 ft | 14 kts | 179° |
| 2026-05-05 12:43 | 63.97293 | -22.60941 | 160 ft | 18 kts | 180° |
| 2026-05-05 12:43 | 63.97143 | -22.60940 | 155 ft | 24 kts | 180° |
| 2026-05-05 12:43 | 63.96973 | -22.60940 | 149 ft | 25 kts | 180° |
| 2026-05-05 12:44 | 63.96808 | -22.60942 | 142 ft | 23 kts | 180° |
| 2026-05-05 12:44 | 63.96650 | -22.60941 | 137 ft | 22 kts | 180° |
| 2026-05-05 12:44 | 63.96512 | -22.60942 | 134 ft | 12 kts | 175° |
| 2026-05-05 12:44 | 63.96463 | -22.60879 | 135 ft | 5 kts | 113° |
| 2026-05-05 12:45 | 63.96460 | -22.60794 | 137 ft | 5 kts | 90° |
| 2026-05-05 12:45 | 63.96460 | -22.60710 | 140 ft | 5 kts | 90° |
| 2026-05-05 12:45 | 63.96460 | -22.60627 | 142 ft | 5 kts | 90° |
| 2026-05-05 12:45 | 63.96467 | -22.60555 | 143 ft | 4 kts | 51° |
| 2026-05-05 12:46 | 63.96494 | -22.60542 | 145 ft | 4 kts | 1° |
| 2026-05-05 12:46 | 63.96534 | -22.60542 | 146 ft | 12 kts | 360° |
| 2026-05-05 12:46 | 63.96855 | -22.60539 | 156 ft | 82 kts | 1° |
| 2026-05-05 12:46 | 63.96884 | -22.60538 | 157 ft | 85 kts | 1° |
| 2026-05-05 12:47 | 63.97581 | -22.60536 | 174 ft | 139 kts | 3° |
| 2026-05-05 12:47 | 63.98613 | -22.60520 | 753 ft | 147 kts | 2° |
| 2026-05-05 12:47 | 63.99640 | -22.60518 | 1641 ft | 150 kts | 5° |
| 2026-05-05 12:47 | 64.00777 | -22.60468 | 2105 ft | 180 kts | 5° |
| 2026-05-05 12:48 | 64.02097 | -22.60383 | 2673 ft | 193 kts | 4° |
| 2026-05-05 12:48 | 64.03436 | -22.60019 | 3397 ft | 196 kts | 21° |
| 2026-05-05 12:48 | 64.04659 | -22.58539 | 4139 ft | 201 kts | 39° |
| 2026-05-05 12:48 | 64.05702 | -22.56406 | 4893 ft | 207 kts | 39° |
| 2026-05-05 12:49 | 64.06668 | -22.53767 | 5122 ft | 237 kts | 70° |
| 2026-05-05 12:49 | 64.06756 | -22.49917 | 5765 ft | 251 kts | 95° |
| 2026-05-05 12:49 | 64.06564 | -22.45896 | 6592 ft | 257 kts | 92° |
| 2026-05-05 12:49 | 64.06355 | -22.41788 | 7321 ft | 269 kts | 106° |
| 2026-05-05 12:50 | 64.05487 | -22.37897 | 8013 ft | 281 kts | 119° |
| 2026-05-05 12:50 | 64.04485 | -22.33985 | 8757 ft | 287 kts | 120° |
| 2026-05-05 12:50 | 64.03467 | -22.29991 | 9574 ft | 294 kts | 120° |
| 2026-05-05 12:50 | 64.02428 | -22.25892 | 10290 ft | 303 kts | 120° |
| 2026-05-05 12:51 | 64.01351 | -22.21624 | 10756 ft | 321 kts | 120° |
| 2026-05-05 12:51 | 64.00194 | -22.17030 | 10963 ft | 346 kts | 120° |
| 2026-05-05 12:51 | 63.98976 | -22.12181 | 11444 ft | 359 kts | 120° |
| 2026-05-05 12:51 | 63.97725 | -22.07202 | 12177 ft | 364 kts | 120° |
| 2026-05-05 12:52 | 63.96458 | -22.02166 | 12951 ft | 369 kts | 121° |
| 2026-05-05 12:52 | 63.95171 | -21.97056 | 13690 ft | 375 kts | 121° |
| 2026-05-05 12:52 | 63.93864 | -21.91877 | 14382 ft | 381 kts | 121° |
| 2026-05-05 12:52 | 63.92533 | -21.86611 | 14999 ft | 387 kts | 121° |
| 2026-05-05 12:53 | 63.91177 | -21.81270 | 15612 ft | 393 kts | 122° |
| 2026-05-05 12:53 | 63.90264 | -21.77683 | 16001 ft | 398 kts | 122° |
| 2026-05-05 12:53 | 63.88391 | -21.70342 | 16812 ft | 406 kts | 123° |
| 2026-05-05 12:53 | 63.86981 | -21.64830 | 17399 ft | 412 kts | 123° |
| 2026-05-05 12:54 | 63.84047 | -21.53412 | 18582 ft | 425 kts | 124° |
| 2026-05-05 12:54 | 63.83034 | -21.49485 | 18920 ft | 429 kts | 124° |
| 2026-05-05 12:54 | 63.81521 | -21.43631 | 19458 ft | 433 kts | 123° |
| 2026-05-05 12:55 | 63.79987 | -21.37697 | 19983 ft | 438 kts | 123° |
| 2026-05-05 12:55 | 63.78458 | -21.31803 | 20505 ft | 443 kts | 123° |
| 2026-05-05 12:55 | 63.76886 | -21.25663 | 21008 ft | 449 kts | 119° |
| 2026-05-05 12:55 | 63.75857 | -21.18963 | 21458 ft | 457 kts | 98° |
| 2026-05-05 12:56 | 63.75444 | -21.11919 | 22031 ft | 459 kts | 95° |
| 2026-05-05 12:56 | 63.75051 | -21.04755 | 22557 ft | 463 kts | 95° |
| 2026-05-05 12:56 | 63.74637 | -20.97497 | 23060 ft | 467 kts | 96° |
| 2026-05-05 12:56 | 63.74196 | -20.90176 | 23562 ft | 471 kts | 96° |
| 2026-05-05 12:57 | 63.73733 | -20.82821 | 24011 ft | 475 kts | 96° |
| 2026-05-05 12:57 | 63.73257 | -20.75437 | 24439 ft | 477 kts | 96° |
| 2026-05-05 12:57 | 63.72770 | -20.68006 | 24883 ft | 480 kts | 96° |
| 2026-05-05 12:57 | 63.72278 | -20.60524 | 25312 ft | 482 kts | 96° |
| 2026-05-05 12:58 | 63.71784 | -20.53034 | 25711 ft | 485 kts | 96° |
| 2026-05-05 12:58 | 63.71258 | -20.45503 | 26110 ft | 488 kts | 100° |
| 2026-05-05 12:58 | 63.70187 | -20.38191 | 26471 ft | 493 kts | 114° |
| 2026-05-05 12:58 | 63.68760 | -20.31145 | 26874 ft | 495 kts | 115° |
| 2026-05-05 12:59 | 63.67272 | -20.24125 | 27239 ft | 498 kts | 116° |
| 2026-05-05 12:59 | 63.65761 | -20.17084 | 27588 ft | 501 kts | 116° |
| 2026-05-05 12:59 | 63.64245 | -20.09979 | 27924 ft | 504 kts | 115° |
| 2026-05-05 13:00 | 63.61231 | -19.95651 | 28639 ft | 509 kts | 115° |
| 2026-05-05 13:00 | 63.59722 | -19.88409 | 28978 ft | 512 kts | 115° |
| 2026-05-05 13:01 | 63.55180 | -19.66617 | 29958 ft | 519 kts | 115° |
| 2026-05-05 13:01 | 63.53640 | -19.59279 | 30256 ft | 521 kts | 115° |
| 2026-05-05 13:01 | 63.52090 | -19.51922 | 30517 ft | 523 kts | 115° |
| 2026-05-05 13:01 | 63.50531 | -19.44555 | 30799 ft | 524 kts | 115° |
| 2026-05-05 13:02 | 63.48966 | -19.37192 | 31181 ft | 522 kts | 115° |
| 2026-05-05 13:02 | 63.47408 | -19.29888 | 31647 ft | 517 kts | 115° |
| 2026-05-05 13:02 | 63.45860 | -19.22654 | 32110 ft | 514 kts | 115° |
| 2026-05-05 13:02 | 63.44320 | -19.15482 | 32483 ft | 512 kts | 115° |
| 2026-05-05 13:03 | 63.42774 | -19.08307 | 32785 ft | 512 kts | 115° |
| 2026-05-05 13:03 | 63.41228 | -19.01155 | 33133 ft | 510 kts | 115° |
| 2026-05-05 13:03 | 63.39687 | -18.94052 | 33547 ft | 507 kts | 116° |
| 2026-05-05 13:03 | 63.38149 | -18.86984 | 33943 ft | 505 kts | 116° |
| 2026-05-05 13:04 | 63.36615 | -18.79957 | 34288 ft | 503 kts | 116° |
| 2026-05-05 13:04 | 63.35081 | -18.72957 | 34534 ft | 503 kts | 116° |
| 2026-05-05 13:04 | 63.33545 | -18.65968 | 34720 ft | 504 kts | 116° |
| 2026-05-05 13:04 | 63.32000 | -18.58964 | 34913 ft | 504 kts | 116° |
| 2026-05-05 13:05 | 63.30453 | -18.51973 | 35154 ft | 503 kts | 116° |
| 2026-05-05 13:05 | 63.28901 | -18.44979 | 35242 ft | 506 kts | 116° |
| 2026-05-05 13:05 | 63.25764 | -18.30918 | 35241 ft | 507 kts | 116° |
| 2026-05-05 13:06 | 63.22633 | -18.16974 | 35230 ft | 503 kts | 116° |
| 2026-05-05 13:06 | 63.19508 | -18.03151 | 35239 ft | 501 kts | 116° |
| 2026-05-05 13:07 | 63.16382 | -17.89407 | 35237 ft | 500 kts | 117° |
| 2026-05-05 13:07 | 63.13243 | -17.75694 | 35241 ft | 500 kts | 117° |
| 2026-05-05 13:08 | 63.10088 | -17.62002 | 35238 ft | 501 kts | 117° |
| 2026-05-05 13:08 | 63.06928 | -17.48373 | 35238 ft | 503 kts | 117° |
| 2026-05-05 13:09 | 63.03722 | -17.34633 | 35237 ft | 505 kts | 117° |
| 2026-05-05 13:09 | 63.00465 | -17.20762 | 35235 ft | 507 kts | 117° |
| 2026-05-05 13:10 | 62.97226 | -17.07058 | 35234 ft | 509 kts | 117° |
| 2026-05-05 13:10 | 62.93943 | -16.93252 | 35229 ft | 511 kts | 117° |
| 2026-05-05 13:11 | 62.90632 | -16.79422 | 35228 ft | 511 kts | 118° |
| 2026-05-05 13:11 | 62.87310 | -16.65629 | 35226 ft | 511 kts | 118° |
| 2026-05-05 13:12 | 62.83979 | -16.51884 | 35224 ft | 511 kts | 118° |
| 2026-05-05 13:12 | 62.80640 | -16.38193 | 35225 ft | 510 kts | 118° |
| 2026-05-05 13:13 | 62.77290 | -16.24546 | 35219 ft | 509 kts | 118° |
| 2026-05-05 13:13 | 62.73936 | -16.10966 | 35222 ft | 508 kts | 118° |
| 2026-05-05 13:14 | 62.70575 | -15.97441 | 35222 ft | 507 kts | 118° |
| 2026-05-05 13:14 | 62.67208 | -15.83972 | 35227 ft | 506 kts | 118° |
| 2026-05-05 13:15 | 62.63828 | -15.70535 | 35225 ft | 506 kts | 119° |
| 2026-05-05 13:15 | 62.60442 | -15.57154 | 35224 ft | 505 kts | 119° |
| 2026-05-05 13:16 | 62.57045 | -15.43812 | 35222 ft | 505 kts | 119° |
| 2026-05-05 13:16 | 62.53633 | -15.30493 | 35221 ft | 505 kts | 119° |
| 2026-05-05 13:17 | 62.50211 | -15.17212 | 35224 ft | 505 kts | 119° |
| 2026-05-05 13:17 | 62.46777 | -15.03967 | 35222 ft | 505 kts | 119° |
| 2026-05-05 13:18 | 62.43349 | -14.90821 | 35223 ft | 505 kts | 120° |
| 2026-05-05 13:18 | 62.39894 | -14.77647 | 35226 ft | 505 kts | 120° |
| 2026-05-05 13:19 | 62.36415 | -14.64464 | 35228 ft | 505 kts | 120° |
| 2026-05-05 13:19 | 62.32928 | -14.51326 | 35224 ft | 505 kts | 120° |
| 2026-05-05 13:20 | 62.29426 | -14.38208 | 35225 ft | 506 kts | 120° |
| 2026-05-05 13:20 | 62.25912 | -14.25124 | 35228 ft | 506 kts | 121° |
| 2026-05-05 13:21 | 62.22386 | -14.12068 | 35226 ft | 506 kts | 121° |
| 2026-05-05 13:21 | 62.18841 | -13.99023 | 35226 ft | 506 kts | 121° |
| 2026-05-05 13:22 | 62.15290 | -13.86028 | 35224 ft | 506 kts | 121° |
| 2026-05-05 13:22 | 62.11747 | -13.73135 | 35224 ft | 506 kts | 121° |
| 2026-05-05 13:23 | 62.08173 | -13.60207 | 35225 ft | 506 kts | 121° |
| 2026-05-05 13:23 | 62.04585 | -13.47302 | 35226 ft | 506 kts | 121° |
| 2026-05-05 13:24 | 62.00979 | -13.34404 | 35223 ft | 506 kts | 122° |
| 2026-05-05 13:24 | 61.97365 | -13.21552 | 35225 ft | 506 kts | 122° |
| 2026-05-05 13:25 | 61.93741 | -13.08735 | 35225 ft | 506 kts | 122° |
| 2026-05-05 13:25 | 61.90103 | -12.95946 | 35222 ft | 506 kts | 122° |
| 2026-05-05 13:26 | 61.86453 | -12.83181 | 35220 ft | 506 kts | 122° |
| 2026-05-05 13:26 | 61.82787 | -12.70437 | 35224 ft | 506 kts | 122° |
| 2026-05-05 13:27 | 61.79109 | -12.57717 | 35226 ft | 507 kts | 122° |
| 2026-05-05 13:27 | 61.75422 | -12.45042 | 35222 ft | 507 kts | 123° |
| 2026-05-05 13:28 | 61.71745 | -12.32470 | 35220 ft | 507 kts | 123° |
| 2026-05-05 13:28 | 61.68033 | -12.19847 | 35218 ft | 507 kts | 123° |
| 2026-05-05 13:29 | 61.64308 | -12.07251 | 35219 ft | 507 kts | 123° |
| 2026-05-05 13:29 | 61.60574 | -11.94692 | 35220 ft | 506 kts | 123° |
| 2026-05-05 13:30 | 61.56826 | -11.82156 | 35219 ft | 506 kts | 123° |
| 2026-05-05 13:30 | 61.53074 | -11.69674 | 35220 ft | 506 kts | 123° |
| 2026-05-05 13:31 | 61.49308 | -11.57215 | 35218 ft | 506 kts | 123° |
| 2026-05-05 13:31 | 61.45558 | -11.44877 | 35218 ft | 506 kts | 123° |
| 2026-05-05 13:32 | 61.41774 | -11.32492 | 35215 ft | 505 kts | 124° |
| 2026-05-05 13:32 | 61.37979 | -11.20137 | 35218 ft | 505 kts | 124° |
| 2026-05-05 13:33 | 61.34178 | -11.07829 | 35216 ft | 505 kts | 124° |
| 2026-05-05 13:33 | 61.30363 | -10.95542 | 35216 ft | 505 kts | 124° |
| 2026-05-05 13:34 | 61.26542 | -10.83302 | 35208 ft | 505 kts | 124° |
| 2026-05-05 13:34 | 61.22711 | -10.71092 | 35212 ft | 504 kts | 124° |
| 2026-05-05 13:35 | 61.18871 | -10.58920 | 35206 ft | 504 kts | 124° |
| 2026-05-05 13:35 | 61.15022 | -10.46783 | 35209 ft | 504 kts | 124° |
| 2026-05-05 13:36 | 61.11163 | -10.34676 | 35208 ft | 504 kts | 125° |
| 2026-05-05 13:36 | 61.07297 | -10.22610 | 35209 ft | 503 kts | 125° |
| 2026-05-05 13:37 | 61.03423 | -10.10574 | 35201 ft | 503 kts | 125° |
| 2026-05-05 13:37 | 61.00061 | -9.97938 | 35203 ft | 504 kts | 111° |
| 2026-05-05 13:38 | 60.98343 | -9.84000 | 35221 ft | 502 kts | 99° |
| 2026-05-05 13:38 | 60.97098 | -9.69832 | 35202 ft | 503 kts | 99° |
| 2026-05-05 13:39 | 60.95813 | -9.55675 | 35200 ft | 503 kts | 100° |
| 2026-05-05 13:39 | 60.94466 | -9.41543 | 35205 ft | 503 kts | 100° |
| 2026-05-05 13:40 | 60.93096 | -9.27525 | 35203 ft | 503 kts | 100° |
| 2026-05-05 13:40 | 60.91930 | -9.15719 | 35200 ft | 503 kts | 101° |
| 2026-05-05 13:41 | 60.90527 | -9.01624 | 35196 ft | 503 kts | 101° |
| 2026-05-05 13:41 | 60.88878 | -8.85247 | 35201 ft | 503 kts | 101° |
| 2026-05-05 13:42 | 60.87686 | -8.73549 | 35197 ft | 504 kts | 101° |
| 2026-05-05 13:42 | 60.86238 | -8.59475 | 35185 ft | 504 kts | 101° |
| 2026-05-05 13:43 | 60.84777 | -8.45421 | 35192 ft | 504 kts | 101° |
| 2026-05-05 13:43 | 60.83300 | -8.31377 | 35191 ft | 504 kts | 101° |
| 2026-05-05 13:44 | 60.81806 | -8.17324 | 35187 ft | 504 kts | 102° |
| 2026-05-05 13:44 | 60.80301 | -8.03292 | 35189 ft | 504 kts | 102° |
| 2026-05-05 13:45 | 60.78749 | -7.89308 | 35176 ft | 504 kts | 105° |
| 2026-05-05 13:45 | 60.76678 | -7.75705 | 35183 ft | 504 kts | 109° |
| 2026-05-05 13:46 | 60.74390 | -7.62062 | 35175 ft | 504 kts | 109° |
| 2026-05-05 13:46 | 60.72148 | -7.48611 | 35184 ft | 503 kts | 109° |
| 2026-05-05 13:47 | 60.69922 | -7.35058 | 35175 ft | 503 kts | 109° |
| 2026-05-05 13:47 | 60.67698 | -7.21506 | 35175 ft | 503 kts | 109° |
| 2026-05-05 13:48 | 60.65467 | -7.07996 | 35179 ft | 503 kts | 109° |
| 2026-05-05 13:48 | 60.63218 | -6.94502 | 35169 ft | 503 kts | 109° |
| 2026-05-05 13:49 | 60.60954 | -6.81025 | 35168 ft | 502 kts | 109° |
| 2026-05-05 13:49 | 60.58679 | -6.67587 | 35174 ft | 502 kts | 109° |
| 2026-05-05 13:50 | 60.56390 | -6.54159 | 35159 ft | 502 kts | 110° |
| 2026-05-05 13:50 | 60.54104 | -6.40846 | 35156 ft | 502 kts | 110° |
| 2026-05-05 13:51 | 60.51791 | -6.27476 | 35167 ft | 502 kts | 110° |
| 2026-05-05 13:51 | 60.49465 | -6.14126 | 35166 ft | 502 kts | 110° |
| 2026-05-05 13:52 | 60.47122 | -6.00773 | 35157 ft | 502 kts | 110° |
| 2026-05-05 13:52 | 60.44768 | -5.87452 | 35158 ft | 502 kts | 110° |
| 2026-05-05 13:53 | 60.42400 | -5.74146 | 35158 ft | 502 kts | 111° |
| 2026-05-05 13:53 | 60.40023 | -5.60883 | 35156 ft | 502 kts | 111° |
| 2026-05-05 13:54 | 60.37629 | -5.47622 | 35155 ft | 502 kts | 111° |
| 2026-05-05 13:54 | 60.35222 | -5.34380 | 35151 ft | 502 kts | 111° |
| 2026-05-05 13:55 | 60.32817 | -5.21236 | 35152 ft | 502 kts | 111° |
| 2026-05-05 13:55 | 60.30371 | -5.07961 | 35152 ft | 502 kts | 111° |
| 2026-05-05 13:56 | 60.27943 | -4.94876 | 35145 ft | 502 kts | 111° |
| 2026-05-05 13:56 | 60.25480 | -4.81694 | 35145 ft | 502 kts | 112° |
| 2026-05-05 13:57 | 60.23011 | -4.68565 | 35141 ft | 502 kts | 112° |
| 2026-05-05 13:57 | 60.20527 | -4.55448 | 35140 ft | 502 kts | 112° |
| 2026-05-05 13:58 | 60.18028 | -4.42337 | 35141 ft | 502 kts | 112° |
| 2026-05-05 13:58 | 60.15519 | -4.29266 | 35139 ft | 502 kts | 112° |
| 2026-05-05 13:59 | 60.11729 | -4.09678 | 35139 ft | 502 kts | 112° |
| 2026-05-05 14:00 | 60.07910 | -3.90133 | 35136 ft | 502 kts | 113° |
| 2026-05-05 14:00 | 60.05351 | -3.77146 | 35132 ft | 502 kts | 113° |
| 2026-05-05 14:01 | 60.02776 | -3.64166 | 35129 ft | 502 kts | 113° |
| 2026-05-05 14:01 | 60.00189 | -3.51202 | 35130 ft | 502 kts | 113° |
| 2026-05-05 14:02 | 59.97591 | -3.38274 | 35129 ft | 502 kts | 114° |
| 2026-05-05 14:02 | 59.94994 | -3.25428 | 35123 ft | 502 kts | 114° |
| 2026-05-05 14:03 | 59.92372 | -3.12544 | 35124 ft | 502 kts | 114° |
| 2026-05-05 14:03 | 59.89730 | -2.99640 | 35130 ft | 502 kts | 114° |
| 2026-05-05 14:04 | 59.87077 | -2.86769 | 35115 ft | 502 kts | 114° |
| 2026-05-05 14:04 | 59.84409 | -2.73904 | 35117 ft | 502 kts | 114° |
| 2026-05-05 14:05 | 59.81729 | -2.61064 | 35116 ft | 502 kts | 114° |
| 2026-05-05 14:05 | 59.79042 | -2.48267 | 35115 ft | 502 kts | 115° |
| 2026-05-05 14:06 | 59.76339 | -2.35478 | 35110 ft | 502 kts | 115° |
| 2026-05-05 14:06 | 59.73623 | -2.22703 | 35113 ft | 502 kts | 115° |
| 2026-05-05 14:07 | 59.70894 | -2.09947 | 35107 ft | 502 kts | 115° |
| 2026-05-05 14:07 | 59.68155 | -1.97223 | 35102 ft | 502 kts | 115° |
| 2026-05-05 14:08 | 59.65419 | -1.84588 | 35101 ft | 502 kts | 115° |
| 2026-05-05 14:08 | 59.62654 | -1.71897 | 35105 ft | 502 kts | 115° |
| 2026-05-05 14:09 | 59.59877 | -1.59228 | 35100 ft | 502 kts | 116° |
| 2026-05-05 14:09 | 59.57091 | -1.46582 | 35101 ft | 502 kts | 116° |
| 2026-05-05 14:10 | 59.54219 | -1.34042 | 35092 ft | 500 kts | 121° |
| 2026-05-05 14:10 | 59.50762 | -1.22192 | 35093 ft | 499 kts | 124° |
| 2026-05-05 14:11 | 59.47168 | -1.10522 | 35090 ft | 498 kts | 124° |
| 2026-05-05 14:11 | 59.43595 | -0.98841 | 35087 ft | 498 kts | 124° |
| 2026-05-05 14:12 | 59.40050 | -0.87138 | 35088 ft | 498 kts | 124° |
| 2026-05-05 14:12 | 59.36509 | -0.75445 | 35088 ft | 498 kts | 124° |
| 2026-05-05 14:13 | 59.32958 | -0.63774 | 35092 ft | 498 kts | 124° |
| 2026-05-05 14:13 | 59.29415 | -0.52201 | 35080 ft | 498 kts | 124° |
| 2026-05-05 14:14 | 59.25840 | -0.40586 | 35089 ft | 498 kts | 124° |
| 2026-05-05 14:14 | 59.22255 | -0.28997 | 35089 ft | 498 kts | 125° |
| 2026-05-05 14:15 | 59.18664 | -0.17445 | 35081 ft | 498 kts | 125° |
| 2026-05-05 14:15 | 59.15066 | -0.05930 | 35081 ft | 498 kts | 125° |
| 2026-05-05 14:16 | 59.11456 | 0.05569 | 35081 ft | 497 kts | 125° |
| 2026-05-05 14:16 | 59.07838 | 0.17038 | 35078 ft | 497 kts | 125° |
| 2026-05-05 14:17 | 59.04212 | 0.28473 | 35074 ft | 497 kts | 125° |
| 2026-05-05 14:17 | 59.00578 | 0.39881 | 35078 ft | 497 kts | 126° |
| 2026-05-05 14:18 | 58.96934 | 0.51263 | 35078 ft | 496 kts | 126° |
| 2026-05-05 14:18 | 58.93284 | 0.62608 | 35073 ft | 496 kts | 126° |
| 2026-05-05 14:19 | 58.89624 | 0.73932 | 35073 ft | 496 kts | 126° |
| 2026-05-05 14:19 | 58.85982 | 0.85145 | 35073 ft | 495 kts | 126° |
| 2026-05-05 14:20 | 58.82305 | 0.96409 | 35071 ft | 495 kts | 126° |
| 2026-05-05 14:20 | 58.78625 | 1.07632 | 35069 ft | 494 kts | 126° |
| 2026-05-05 14:21 | 58.74938 | 1.18820 | 35066 ft | 494 kts | 126° |
| 2026-05-05 14:21 | 58.71250 | 1.29963 | 35066 ft | 494 kts | 126° |
| 2026-05-05 14:22 | 58.67553 | 1.41077 | 35064 ft | 493 kts | 126° |
| 2026-05-05 14:22 | 58.63848 | 1.52161 | 35067 ft | 493 kts | 127° |
| 2026-05-05 14:23 | 58.60138 | 1.63212 | 35059 ft | 492 kts | 127° |
| 2026-05-05 14:23 | 58.56419 | 1.74237 | 35059 ft | 492 kts | 127° |
| 2026-05-05 14:24 | 58.52689 | 1.85243 | 35060 ft | 492 kts | 127° |
| 2026-05-05 14:24 | 58.48960 | 1.96192 | 35054 ft | 491 kts | 127° |
| 2026-05-05 14:25 | 58.45246 | 2.07051 | 35052 ft | 491 kts | 127° |
| 2026-05-05 14:25 | 58.41497 | 2.17963 | 35055 ft | 491 kts | 127° |
| 2026-05-05 14:26 | 58.37744 | 2.28834 | 35057 ft | 491 kts | 127° |
| 2026-05-05 14:26 | 58.33986 | 2.39669 | 35056 ft | 490 kts | 127° |
| 2026-05-05 14:27 | 58.30217 | 2.50489 | 35057 ft | 490 kts | 127° |
| 2026-05-05 14:27 | 58.26443 | 2.61271 | 35055 ft | 490 kts | 128° |
| 2026-05-05 14:28 | 58.22656 | 2.72045 | 35054 ft | 490 kts | 128° |
| 2026-05-05 14:28 | 58.18861 | 2.82790 | 35053 ft | 490 kts | 128° |
| 2026-05-05 14:29 | 58.15700 | 2.91705 | 35049 ft | 490 kts | 128° |
| 2026-05-05 14:29 | 58.11884 | 3.02422 | 35049 ft | 490 kts | 128° |
| 2026-05-05 14:30 | 58.08094 | 3.13020 | 35046 ft | 490 kts | 128° |
| 2026-05-05 14:30 | 58.04265 | 3.23679 | 35051 ft | 490 kts | 128° |
| 2026-05-05 14:31 | 58.00427 | 3.34316 | 35047 ft | 490 kts | 128° |
| 2026-05-05 14:31 | 57.96577 | 3.44940 | 35048 ft | 490 kts | 128° |
| 2026-05-05 14:32 | 57.92722 | 3.55538 | 35042 ft | 490 kts | 129° |
| 2026-05-05 14:32 | 57.88678 | 3.65820 | 35048 ft | 486 kts | 135° |
| 2026-05-05 14:33 | 57.84242 | 3.75366 | 35042 ft | 485 kts | 136° |
| 2026-05-05 14:33 | 57.79758 | 3.84807 | 35041 ft | 485 kts | 136° |
| 2026-05-05 14:34 | 57.75302 | 3.94291 | 35044 ft | 484 kts | 136° |
| 2026-05-05 14:34 | 57.70864 | 4.03794 | 35042 ft | 484 kts | 136° |
| 2026-05-05 14:35 | 57.66435 | 4.13261 | 35035 ft | 484 kts | 136° |
| 2026-05-05 14:35 | 57.61998 | 4.22700 | 35033 ft | 483 kts | 136° |
| 2026-05-05 14:36 | 57.57560 | 4.32100 | 35034 ft | 483 kts | 136° |
| 2026-05-05 14:36 | 57.53120 | 4.41463 | 35039 ft | 482 kts | 136° |
| 2026-05-05 14:37 | 57.48676 | 4.50798 | 35028 ft | 482 kts | 136° |
| 2026-05-05 14:37 | 57.44232 | 4.60097 | 35030 ft | 481 kts | 136° |
| 2026-05-05 14:38 | 57.39812 | 4.69308 | 35035 ft | 481 kts | 136° |
| 2026-05-05 14:38 | 57.35358 | 4.78554 | 35030 ft | 481 kts | 136° |
| 2026-05-05 14:39 | 57.30894 | 4.87783 | 35027 ft | 480 kts | 136° |
| 2026-05-05 14:39 | 57.26429 | 4.96981 | 35025 ft | 480 kts | 136° |
| 2026-05-05 14:40 | 57.21960 | 5.06149 | 35027 ft | 480 kts | 137° |
| 2026-05-05 14:40 | 57.17493 | 5.15279 | 35023 ft | 479 kts | 137° |
| 2026-05-05 14:41 | 57.13022 | 5.24381 | 35025 ft | 479 kts | 137° |
| 2026-05-05 14:41 | 57.08549 | 5.33453 | 35022 ft | 478 kts | 137° |
| 2026-05-05 14:42 | 57.04073 | 5.42500 | 35020 ft | 478 kts | 137° |
| 2026-05-05 14:42 | 56.99782 | 5.51833 | 35012 ft | 482 kts | 127° |
| 2026-05-05 14:43 | 56.96714 | 5.62759 | 35019 ft | 486 kts | 118° |
| 2026-05-05 14:43 | 56.93837 | 5.73955 | 35014 ft | 485 kts | 118° |
| 2026-05-05 14:44 | 56.90925 | 5.85091 | 35016 ft | 485 kts | 119° |
| 2026-05-05 14:44 | 56.87983 | 5.96169 | 35014 ft | 484 kts | 119° |
| 2026-05-05 14:45 | 56.85026 | 6.07216 | 35019 ft | 483 kts | 119° |
| 2026-05-05 14:45 | 56.82062 | 6.18230 | 35013 ft | 483 kts | 120° |
| 2026-05-05 14:46 | 56.79087 | 6.29241 | 34762 ft | 487 kts | 120° |
| 2026-05-05 14:46 | 56.77578 | 6.34802 | 34170 ft | 488 kts | 120° |
| 2026-05-05 14:46 | 56.76072 | 6.40344 | 33477 ft | 488 kts | 120° |
| 2026-05-05 14:47 | 56.74566 | 6.45877 | 32816 ft | 487 kts | 120° |
| 2026-05-05 14:47 | 56.73069 | 6.51365 | 32382 ft | 481 kts | 120° |
| 2026-05-05 14:47 | 56.71582 | 6.56805 | 31877 ft | 477 kts | 120° |
| 2026-05-05 14:47 | 56.70107 | 6.62183 | 31417 ft | 473 kts | 120° |
| 2026-05-05 14:48 | 56.68645 | 6.67501 | 30952 ft | 469 kts | 120° |
| 2026-05-05 14:48 | 56.67189 | 6.72783 | 30497 ft | 465 kts | 120° |
| 2026-05-05 14:48 | 56.65746 | 6.78008 | 30039 ft | 461 kts | 120° |
| 2026-05-05 14:48 | 56.64310 | 6.83192 | 29516 ft | 457 kts | 120° |
| 2026-05-05 14:49 | 56.62888 | 6.88318 | 29053 ft | 452 kts | 120° |
| 2026-05-05 14:49 | 56.61479 | 6.93383 | 28585 ft | 447 kts | 120° |
| 2026-05-05 14:49 | 56.60082 | 6.98394 | 28128 ft | 442 kts | 121° |
| 2026-05-05 14:49 | 56.58698 | 7.03350 | 27668 ft | 438 kts | 121° |
| 2026-05-05 14:50 | 56.57343 | 7.08188 | 27220 ft | 434 kts | 121° |
| 2026-05-05 14:50 | 56.55975 | 7.13062 | 26758 ft | 431 kts | 121° |
| 2026-05-05 14:50 | 56.54622 | 7.17876 | 26311 ft | 427 kts | 121° |
| 2026-05-05 14:50 | 56.53275 | 7.22654 | 25880 ft | 424 kts | 121° |
| 2026-05-05 14:51 | 56.51935 | 7.27398 | 25459 ft | 421 kts | 121° |
| 2026-05-05 14:51 | 56.50604 | 7.32102 | 25000 ft | 418 kts | 121° |
| 2026-05-05 14:51 | 56.49279 | 7.36776 | 24587 ft | 416 kts | 121° |
| 2026-05-05 14:51 | 56.47962 | 7.41412 | 24160 ft | 413 kts | 121° |
| 2026-05-05 14:52 | 56.46649 | 7.46026 | 23740 ft | 411 kts | 121° |
| 2026-05-05 14:52 | 56.45340 | 7.50613 | 23253 ft | 409 kts | 121° |
| 2026-05-05 14:52 | 56.44039 | 7.55167 | 22781 ft | 407 kts | 121° |
| 2026-05-05 14:52 | 56.42744 | 7.59691 | 22337 ft | 403 kts | 121° |
| 2026-05-05 14:53 | 56.41458 | 7.64174 | 21916 ft | 400 kts | 121° |
| 2026-05-05 14:53 | 56.40179 | 7.68625 | 21489 ft | 397 kts | 121° |
| 2026-05-05 14:53 | 56.38910 | 7.73034 | 21067 ft | 394 kts | 121° |
| 2026-05-05 14:53 | 56.37648 | 7.77409 | 20652 ft | 392 kts | 121° |
| 2026-05-05 14:54 | 56.36392 | 7.81752 | 20238 ft | 389 kts | 121° |
| 2026-05-05 14:54 | 56.35143 | 7.86064 | 19832 ft | 387 kts | 121° |
| 2026-05-05 14:54 | 56.33901 | 7.90343 | 19433 ft | 385 kts | 121° |
| 2026-05-05 14:54 | 56.32661 | 7.94611 | 19037 ft | 383 kts | 122° |
| 2026-05-05 14:55 | 56.31429 | 7.98842 | 18624 ft | 381 kts | 121° |
| 2026-05-05 14:55 | 56.30197 | 8.03062 | 18211 ft | 379 kts | 122° |
| 2026-05-05 14:55 | 56.28973 | 8.07251 | 17752 ft | 378 kts | 121° |
| 2026-05-05 14:55 | 56.27753 | 8.11417 | 17325 ft | 375 kts | 122° |
| 2026-05-05 14:56 | 56.26540 | 8.15554 | 16916 ft | 373 kts | 121° |
| 2026-05-05 14:56 | 56.25334 | 8.19660 | 16516 ft | 370 kts | 121° |
| 2026-05-05 14:56 | 56.24134 | 8.23738 | 16117 ft | 367 kts | 122° |
| 2026-05-05 14:56 | 56.22944 | 8.27773 | 15725 ft | 365 kts | 121° |
| 2026-05-05 14:57 | 56.21760 | 8.31781 | 15332 ft | 363 kts | 121° |
| 2026-05-05 14:57 | 56.20576 | 8.35784 | 14943 ft | 360 kts | 121° |
| 2026-05-05 14:57 | 56.19404 | 8.39740 | 14555 ft | 358 kts | 121° |
| 2026-05-05 14:57 | 56.18234 | 8.43681 | 14164 ft | 357 kts | 121° |
| 2026-05-05 14:58 | 56.17066 | 8.47605 | 13767 ft | 355 kts | 121° |
| 2026-05-05 14:58 | 56.15906 | 8.51499 | 13354 ft | 354 kts | 121° |
| 2026-05-05 14:58 | 56.14764 | 8.55328 | 12946 ft | 351 kts | 121° |
| 2026-05-05 14:58 | 56.13614 | 8.59176 | 12547 ft | 349 kts | 121° |
| 2026-05-05 14:59 | 56.12474 | 8.62986 | 12170 ft | 345 kts | 121° |
| 2026-05-05 14:59 | 56.11341 | 8.66766 | 11780 ft | 343 kts | 121° |
| 2026-05-05 14:59 | 56.10214 | 8.70520 | 11409 ft | 340 kts | 120° |
| 2026-05-05 14:59 | 56.09095 | 8.74239 | 11030 ft | 338 kts | 120° |
| 2026-05-05 15:00 | 56.07983 | 8.77930 | 10640 ft | 336 kts | 120° |
| 2026-05-05 15:00 | 56.07250 | 8.80361 | 10447 ft | 334 kts | 120° |
| 2026-05-05 15:00 | 56.05801 | 8.85160 | 10256 ft | 323 kts | 120° |
| 2026-05-05 15:00 | 56.04745 | 8.88651 | 10109 ft | 314 kts | 120° |
| 2026-05-05 15:01 | 56.03751 | 8.91934 | 9966 ft | 306 kts | 120° |
| 2026-05-05 15:01 | 56.02751 | 8.95230 | 9910 ft | 295 kts | 120° |
| 2026-05-05 15:01 | 56.01764 | 8.98476 | 9475 ft | 298 kts | 120° |
| 2026-05-05 15:01 | 56.00778 | 9.01716 | 9153 ft | 296 kts | 120° |
| 2026-05-05 15:02 | 55.99798 | 9.04932 | 8834 ft | 294 kts | 120° |
| 2026-05-05 15:02 | 55.98819 | 9.08140 | 8546 ft | 292 kts | 120° |
| 2026-05-05 15:02 | 55.97851 | 9.11308 | 8249 ft | 290 kts | 120° |
| 2026-05-05 15:02 | 55.96887 | 9.14456 | 7961 ft | 288 kts | 120° |
| 2026-05-05 15:03 | 55.95941 | 9.17546 | 7679 ft | 286 kts | 119° |
| 2026-05-05 15:03 | 55.94991 | 9.20643 | 7391 ft | 284 kts | 120° |
| 2026-05-05 15:03 | 55.94044 | 9.23727 | 7123 ft | 282 kts | 119° |
| 2026-05-05 15:03 | 55.93102 | 9.26789 | 6826 ft | 280 kts | 119° |
| 2026-05-05 15:04 | 55.92168 | 9.29824 | 6541 ft | 278 kts | 119° |
| 2026-05-05 15:04 | 55.91239 | 9.32836 | 6254 ft | 276 kts | 118° |
| 2026-05-05 15:04 | 55.90317 | 9.35824 | 5957 ft | 275 kts | 118° |
| 2026-05-05 15:04 | 55.89397 | 9.38803 | 5668 ft | 273 kts | 118° |
| 2026-05-05 15:05 | 55.87574 | 9.44695 | 5090 ft | 270 kts | 118° |
| 2026-05-05 15:05 | 55.86668 | 9.47613 | 4815 ft | 269 kts | 118° |
| 2026-05-05 15:05 | 55.85767 | 9.50514 | 4531 ft | 268 kts | 117° |
| 2026-05-05 15:06 | 55.84701 | 9.53212 | 4217 ft | 269 kts | 138° |
| 2026-05-05 15:06 | 55.83066 | 9.54726 | 4017 ft | 264 kts | 169° |
| 2026-05-05 15:06 | 55.81284 | 9.54740 | 3943 ft | 254 kts | 193° |
| 2026-05-05 15:06 | 55.79631 | 9.53881 | 3893 ft | 241 kts | 198° |
| 2026-05-05 15:07 | 55.78072 | 9.53009 | 3763 ft | 229 kts | 198° |
| 2026-05-05 15:07 | 55.76590 | 9.52170 | 3637 ft | 218 kts | 202° |
| 2026-05-05 15:07 | 55.75427 | 9.50652 | 3515 ft | 201 kts | 240° |
| 2026-05-05 15:07 | 55.74968 | 9.48417 | 3351 ft | 191 kts | 266° |
| 2026-05-05 15:08 | 55.74893 | 9.46128 | 3192 ft | 183 kts | 274° |
| 2026-05-05 15:08 | 55.74909 | 9.43887 | 2968 ft | 180 kts | 272° |
| 2026-05-05 15:08 | 55.74874 | 9.41685 | 2764 ft | 176 kts | 270° |
| 2026-05-05 15:08 | 55.74811 | 9.39590 | 2597 ft | 162 kts | 270° |
| 2026-05-05 15:09 | 55.74749 | 9.37659 | 2473 ft | 159 kts | 270° |
| 2026-05-05 15:09 | 55.74688 | 9.35752 | 2281 ft | 155 kts | 270° |
| 2026-05-05 15:09 | 55.74624 | 9.33851 | 2092 ft | 154 kts | 270° |
| 2026-05-05 15:09 | 55.74561 | 9.31966 | 1871 ft | 151 kts | 269° |
| 2026-05-05 15:10 | 55.74504 | 9.30131 | 1680 ft | 148 kts | 270° |
| 2026-05-05 15:10 | 55.74444 | 9.28277 | 1454 ft | 150 kts | 270° |
| 2026-05-05 15:10 | 55.74385 | 9.26438 | 1237 ft | 149 kts | 270° |
| 2026-05-05 15:10 | 55.74332 | 9.24745 | 1051 ft | 145 kts | 270° |
| 2026-05-05 15:11 | 55.74320 | 9.24341 | 1019 ft | 145 kts | 270° |
| 2026-05-05 15:11 | 55.74262 | 9.22544 | 806 ft | 145 kts | 269° |
| 2026-05-05 15:11 | 55.74206 | 9.20750 | 613 ft | 148 kts | 270° |
| 2026-05-05 15:12 | 55.74142 | 9.18937 | 386 ft | 146 kts | 270° |
| 2026-05-05 15:12 | 55.74094 | 9.17171 | 217 ft | 138 kts | 269° |
| 2026-05-05 15:12 | 55.74052 | 9.15784 | 215 ft | 82 kts | 267° |
| 2026-05-05 15:12 | 55.74032 | 9.15196 | 221 ft | 29 kts | 261° |
| 2026-05-05 15:13 | 55.73971 | 9.14919 | 218 ft | 14 kts | 240° |
| 2026-05-05 15:13 | 55.73926 | 9.14778 | 217 ft | 13 kts | 240° |
| 2026-05-05 15:13 | 55.73884 | 9.14639 | 218 ft | 13 kts | 248° |
| 2026-05-05 15:13 | 55.73860 | 9.14491 | 221 ft | 12 kts | 257° |
| 2026-05-05 15:14 | 55.73848 | 9.14342 | 215 ft | 12 kts | 264° |
| 2026-05-05 15:14 | 55.73842 | 9.14195 | 215 ft | 12 kts | 268° |
| 2026-05-05 15:14 | 55.73839 | 9.14063 | 215 ft | 5 kts | 267° |
| 2026-05-05 15:14 | 55.73832 | 9.14013 | 223 ft | 3 kts | 223° |
| 2026-05-05 15:15 | 55.73808 | 9.14010 | 215 ft | 4 kts | 175° |
| 2026-05-05 15:15 | 55.73791 | 9.14013 | 215 ft | 4 kts | 174° |
| 2026-05-05 15:15 | 55.73774 | 9.14015 | 215 ft | 1 kts | 178° |
| 2026-05-05 15:15 | 55.73768 | 9.14015 | 215 ft | 1 kts | 178° |
| 2026-05-05 15:16 | 55.73763 | 9.14015 | 215 ft | 0 kts | 178° |
| 2026-05-05 15:18 | 55.73763 | 9.14016 | 215 ft | 0 kts | 178° |
| 2026-05-05 15:18 | 55.73763 | 9.14015 | 215 ft | 0 kts | 178° |
| 2026-05-05 15:20 | 55.73763 | 9.14016 | 215 ft | 0 kts | 178° |
| 2026-05-05 15:22 | 55.73763 | 9.14015 | 215 ft | 0 kts | 178° |